Time;durP1;ratioP1;P1;durP2;ratioP2;P2;SDS_P1;SDS_P2;PMS_P1;PMS_P2;Temp;Humidity;BMP_temperature;BMP_pressure;BME280_temperature;BME280_humidity;BME280_pressure;Samples;Min_cycle;Max_cycle;Signal;HPM_P1;HPM_P2
2021/03/04 00:00:35;;;;;;;;;;;;;;;1.75;100.00;101267.72;5114037;28;19976;-77
2021/03/04 00:03:03;;;;;;;;;;;;;;;1.82;100.00;101273.59;5095900;28;19924;-77
2021/03/04 00:05:30;;;;;;;;;;;;;;;1.89;100.00;101265.69;5095679;28;19931;-77
2021/03/04 00:07:56;;;;;;;;;;;;;;;1.92;100.00;101274.47;5095443;28;19924;-77
2021/03/04 00:10:23;;;;;;;;;;;;;;;2.14;100.00;101269.75;5088485;28;19928;-77
2021/03/04 00:12:50;;;;;;;;;;;;;;;1.91;100.00;101270.09;5072175;28;19924;-77
2021/03/04 00:15:19;;;;;;;;;;;;;;;1.84;100.00;101271.34;5097535;28;20385;-77
2021/03/04 00:17:46;;;;;;;;;;;;;;;1.84;100.00;101276.88;5097308;28;19930;-77
2021/03/04 00:20:14;;;;;;;;;;;;;;;1.88;100.00;101268.75;5079288;28;19931;-77
2021/03/04 00:22:41;;;;;;;;;;;;;;;1.86;100.00;101277.34;5097071;28;19959;-77
2021/03/04 00:25:08;;;;;;;;;;;;;;;1.95;100.00;101282.13;5097383;28;19928;-77
2021/03/04 00:27:35;;;;;;;;;;;;;;;1.94;100.00;101278.53;5097059;28;19931;-77
2021/03/04 00:30:07;;;;;;;;;;;;;;;1.92;100.00;101282.75;5097234;28;20283;-77
2021/03/04 00:32:34;;;;;;;;;;;;;;;1.95;100.00;101284.88;5097440;28;19931;-77
2021/03/04 00:35:01;;;;;;;;;;;;;;;2.00;100.00;101293.03;5097073;28;19924;-77
2021/03/04 00:37:35;;;;;;;;;;;;;;;2.08;100.00;101287.56;5064306;28;20329;-77
2021/03/04 00:40:04;;;;;;;;;;;;;;;2.07;100.00;101290.66;5097095;28;19924;-77
2021/03/04 00:42:31;;;;;;;;;;;;;;;2.01;100.00;101280.88;5078976;28;19967;-77
2021/03/04 00:44:57;;;;;;;;;;;;;;;2.09;100.00;101296.66;5079385;28;20248;-77
2021/03/04 00:47:24;;;;;;;;;;;;;;;2.06;100.00;101302.81;5078825;28;20448;-77
2021/03/04 00:49:50;;;;;;;;;;;;;;;2.13;100.00;101305.94;5096540;28;19924;-77
2021/03/04 00:52:17;;;;;;;;;;;;;;;2.13;100.00;101314.22;5078979;28;19924;-77
2021/03/04 00:54:43;;;;;;;;;;;;;;;2.10;100.00;101312.06;5078877;28;19932;-77
2021/03/04 00:57:10;;;;;;;;;;;;;;;2.07;100.00;101308.00;5096847;28;19931;-77
2021/03/04 00:59:37;;;;;;;;;;;;;;;2.09;100.00;101319.53;5078916;28;19924;-77
2021/03/04 01:02:03;;;;;;;;;;;;;;;2.03;100.00;101312.50;5096735;28;19928;-77
2021/03/04 01:04:30;;;;;;;;;;;;;;;2.11;100.00;101313.69;5096407;28;20023;-77
2021/03/04 01:06:56;;;;;;;;;;;;;;;2.05;100.00;101302.00;5062025;28;19924;-77
2021/03/04 01:09:23;;;;;;;;;;;;;;;2.00;100.00;101298.56;5086690;28;20272;-77
2021/03/04 01:11:49;;;;;;;;;;;;;;;1.93;100.00;101298.97;5095171;28;19950;-77
2021/03/04 01:14:16;;;;;;;;;;;;;;;1.88;100.00;101303.81;5078585;28;19932;-77
2021/03/04 01:16:42;;;;;;;;;;;;;;;1.85;100.00;101306.06;5095053;28;19967;-77
2021/03/04 01:19:09;;;;;;;;;;;;;;;1.89;100.00;101311.78;5094766;28;19973;-77
2021/03/04 01:21:35;;;;;;;;;;;;;;;1.97;100.00;101316.50;5093863;28;19931;-77
2021/03/04 01:24:04;;;;;;;;;;;;;;;2.01;100.00;101323.06;5096354;28;20027;-77
2021/03/04 01:26:31;;;;;;;;;;;;;;;1.99;100.00;101322.53;5095127;28;19955;-78
2021/03/04 01:28:58;;;;;;;;;;;;;;;1.96;100.00;101311.31;5096278;28;19931;-78
2021/03/04 01:31:24;;;;;;;;;;;;;;;1.96;100.00;101312.13;5096037;28;19959;-77
2021/03/04 01:33:50;;;;;;;;;;;;;;;1.92;100.00;101316.66;5095987;28;19928;-77
2021/03/04 01:36:17;;;;;;;;;;;;;;;1.86;100.00;101310.44;5094743;28;20338;-77
2021/03/04 01:38:43;;;;;;;;;;;;;;;1.82;100.00;101317.72;5096074;28;19966;-77
2021/03/04 01:41:10;;;;;;;;;;;;;;;1.92;100.00;101316.66;5095996;28;20371;-77
2021/03/04 01:43:36;;;;;;;;;;;;;;;2.05;100.00;101314.94;5094873;28;19948;-77
2021/03/04 01:46:03;;;;;;;;;;;;;;;1.98;100.00;101315.41;5096074;28;20149;-77
2021/03/04 01:48:39;;;;;;;;;;;;;;;2.21;100.00;101324.50;5078651;28;19955;-77
2021/03/04 01:51:05;;;;;;;;;;;;;;;2.30;100.00;101333.66;5094695;28;19924;-76
2021/03/04 01:53:32;;;;;;;;;;;;;;;2.34;100.00;101335.47;5095977;28;20027;-77
2021/03/04 01:55:59;;;;;;;;;;;;;;;2.44;100.00;101343.47;5094528;28;19931;-77
2021/03/04 01:58:25;;;;;;;;;;;;;;;2.46;100.00;101346.75;5095535;28;19931;-77
2021/03/04 02:00:52;;;;;;;;;;;;;;;2.41;100.00;101346.06;5094550;28;19924;-77
2021/03/04 02:03:22;;;;;;;;;;;;;;;2.44;100.00;101350.97;5076967;28;19931;-77
2021/03/04 02:05:49;;;;;;;;;;;;;;;2.55;100.00;101352.31;5095455;28;19924;-77
2021/03/04 02:08:15;;;;;;;;;;;;;;;2.43;100.00;101349.31;5096383;28;19950;-78
2021/03/04 02:10:45;;;;;;;;;;;;;;;2.34;100.00;101351.19;5115645;28;20393;-77
2021/03/04 02:13:23;;;;;;;;;;;;;;;2.37;100.00;101361.59;5115354;28;19928;-77
2021/03/04 02:16:01;;;;;;;;;;;;;;;2.41;100.00;101362.63;5115626;28;20360;-77
2021/03/04 02:18:30;;;;;;;;;;;;;;;2.37;100.00;101367.94;5115079;28;20011;-77
2021/03/04 02:21:09;;;;;;;;;;;;;;;2.31;100.00;101365.63;5115411;28;19967;-77
2021/03/04 02:23:41;;;;;;;;;;;;;;;2.31;100.00;101360.09;5115463;28;19924;-77
2021/03/04 02:26:15;;;;;;;;;;;;;;;2.33;100.00;101371.66;5101524;28;19923;-77
2021/03/04 02:28:42;;;;;;;;;;;;;;;2.34;100.00;101367.75;5097209;28;19928;-77
2021/03/04 02:31:09;;;;;;;;;;;;;;;2.40;100.00;101372.00;5096959;28;20019;-77
2021/03/04 02:33:36;;;;;;;;;;;;;;;2.37;100.00;101376.22;5114896;28;19959;-77
2021/03/04 02:36:03;;;;;;;;;;;;;;;2.33;100.00;101382.69;5115135;28;19928;-77
2021/03/04 02:38:31;;;;;;;;;;;;;;;2.25;100.00;101384.25;5114906;28;20266;-77
2021/03/04 02:40:59;;;;;;;;;;;;;;;2.16;100.00;101388.06;5096879;28;19949;-77
2021/03/04 02:43:26;;;;;;;;;;;;;;;2.15;100.00;101389.19;5115142;28;19969;-78
2021/03/04 02:45:53;;;;;;;;;;;;;;;2.22;100.00;101393.16;5096352;28;20282;-77
2021/03/04 02:48:20;;;;;;;;;;;;;;;2.23;100.00;101389.25;5114876;28;20006;-77
2021/03/04 02:50:48;;;;;;;;;;;;;;;2.23;100.00;101405.00;5114956;28;19923;-77
2021/03/04 02:53:15;;;;;;;;;;;;;;;2.26;100.00;101401.63;5114681;28;19924;-77
2021/03/04 02:55:43;;;;;;;;;;;;;;;2.28;100.00;101402.94;5114599;28;19927;-77
2021/03/04 02:58:11;;;;;;;;;;;;;;;2.11;100.00;101401.97;5114474;28;19931;-76
2021/03/04 03:00:38;;;;;;;;;;;;;;;2.20;100.00;101411.94;5096086;28;20032;-77
2021/03/04 03:03:10;;;;;;;;;;;;;;;2.12;100.00;101414.63;5114365;28;19924;-77
2021/03/04 03:05:37;;;;;;;;;;;;;;;2.11;100.00;101415.75;5096150;28;19953;-77
2021/03/04 03:08:04;;;;;;;;;;;;;;;2.11;100.00;101413.00;5113019;28;19934;-77
2021/03/04 03:10:31;;;;;;;;;;;;;;;2.13;100.00;101408.00;5113226;28;19924;-77
2021/03/04 03:13:00;;;;;;;;;;;;;;;2.07;100.00;101409.22;5113868;28;20279;-77
2021/03/04 03:15:28;;;;;;;;;;;;;;;2.07;100.00;101406.47;5100092;28;19924;-77
2021/03/04 03:17:54;;;;;;;;;;;;;;;2.02;100.00;101403.81;5114023;28;19932;-77
2021/03/04 03:20:22;;;;;;;;;;;;;;;1.99;100.00;101408.03;5076629;28;20373;-77
2021/03/04 03:22:49;;;;;;;;;;;;;;;1.98;100.00;101416.63;5114470;28;20450;-77
2021/03/04 03:25:16;;;;;;;;;;;;;;;2.02;100.00;101412.09;5096169;28;19924;-77
2021/03/04 03:27:43;;;;;;;;;;;;;;;1.93;100.00;101412.03;5096055;28;19955;-77
2021/03/04 03:30:16;;;;;;;;;;;;;;;1.99;100.00;101418.22;5095593;28;19924;-77
2021/03/04 03:32:44;;;;;;;;;;;;;;;2.07;100.00;101420.25;5096119;28;19928;-77
2021/03/04 03:35:11;;;;;;;;;;;;;;;1.96;100.00;101422.44;5095879;28;20278;-77
2021/03/04 03:37:38;;;;;;;;;;;;;;;2.04;100.00;101434.69;5113946;28;19923;-77
2021/03/04 03:40:06;;;;;;;;;;;;;;;2.02;100.00;101425.88;5113994;28;19927;-77
2021/03/04 03:42:34;;;;;;;;;;;;;;;2.00;100.00;101434.47;5096038;28;20311;-77
2021/03/04 03:45:01;;;;;;;;;;;;;;;1.97;100.00;101434.28;5078035;28;19972;-77
2021/03/04 03:47:31;;;;;;;;;;;;;;;1.92;100.00;101442.66;5095941;28;20023;-77
2021/03/04 03:49:59;;;;;;;;;;;;;;;2.03;100.00;101450.41;5096038;28;19927;-77
2021/03/04 03:52:25;;;;;;;;;;;;;;;2.03;100.00;101463.41;5114007;28;19924;-77
2021/03/04 03:54:52;;;;;;;;;;;;;;;2.12;100.00;101461.53;5113837;28;19924;-77
2021/03/04 03:57:20;;;;;;;;;;;;;;;2.13;100.00;101463.16;5095373;28;19993;-77
2021/03/04 03:59:48;;;;;;;;;;;;;;;1.95;100.00;101455.84;5113350;28;20290;-77
2021/03/04 04:02:15;;;;;;;;;;;;;;;2.01;100.00;101465.63;5113877;28;19963;-77
2021/03/04 04:04:41;;;;;;;;;;;;;;;1.94;100.00;101468.00;5113674;28;20405;-77
2021/03/04 04:07:09;;;;;;;;;;;;;;;1.91;100.00;101468.63;5113791;28;19924;-77
2021/03/04 04:09:36;;;;;;;;;;;;;;;1.83;100.00;101462.69;5113408;28;19931;-77
2021/03/04 04:12:03;;;;;;;;;;;;;;;1.88;100.00;101470.84;5095438;28;19931;-77
2021/03/04 04:14:30;;;;;;;;;;;;;;;1.94;100.00;101468.00;5113458;28;19930;-77
2021/03/04 04:16:57;;;;;;;;;;;;;;;1.94;100.00;101468.81;5078352;28;19931;-77
2021/03/04 04:19:24;;;;;;;;;;;;;;;2.01;100.00;101479.41;5113444;28;20366;-77
2021/03/04 04:21:50;;;;;;;;;;;;;;;2.05;100.00;101484.00;5095602;28;20011;-77
2021/03/04 04:24:18;;;;;;;;;;;;;;;2.02;100.00;101486.56;5095166;28;20006;-77
2021/03/04 04:26:44;;;;;;;;;;;;;;;2.07;100.00;101483.69;5095097;28;19954;-77
2021/03/04 04:29:10;;;;;;;;;;;;;;;2.03;100.00;101483.50;5095272;28;19981;-77
2021/03/04 04:31:37;;;;;;;;;;;;;;;2.02;100.00;101487.38;5095221;28;20027;-77
2021/03/04 04:34:04;;;;;;;;;;;;;;;2.01;100.00;101491.28;5095341;28;19928;-77
2021/03/04 04:36:30;;;;;;;;;;;;;;;2.07;100.00;101500.25;5095470;28;19924;-77
2021/03/04 04:38:57;;;;;;;;;;;;;;;2.04;100.00;101501.69;5095383;28;19924;-77
2021/03/04 04:41:24;;;;;;;;;;;;;;;2.01;100.00;101502.31;5099035;28;19932;-77
2021/03/04 04:43:50;;;;;;;;;;;;;;;2.03;100.00;101499.25;5113076;28;19946;-77
2021/03/04 04:46:19;;;;;;;;;;;;;;;1.98;100.00;101502.94;5093904;28;20375;-77
2021/03/04 04:48:46;;;;;;;;;;;;;;;2.00;100.00;101502.63;5113149;28;19924;-77
2021/03/04 04:51:12;;;;;;;;;;;;;;;2.05;100.00;101486.75;5098978;28;19930;-77
2021/03/04 04:53:40;;;;;;;;;;;;;;;2.07;100.00;101500.25;5095048;28;20305;-77
2021/03/04 04:56:07;;;;;;;;;;;;;;;2.12;100.00;101508.41;5095951;28;19924;-77
2021/03/04 04:58:35;;;;;;;;;;;;;;;2.13;100.00;101512.81;5116783;28;19924;-77
2021/03/04 05:01:02;;;;;;;;;;;;;;;2.09;100.00;101520.06;5098840;28;19924;-77
2021/03/04 05:03:28;;;;;;;;;;;;;;;2.07;100.00;101511.28;5116550;28;19949;-77
2021/03/04 05:05:55;;;;;;;;;;;;;;;2.07;100.00;101520.38;5098558;28;19977;-77
2021/03/04 05:08:21;;;;;;;;;;;;;;;2.04;100.00;101512.72;5081664;28;19923;-77
2021/03/04 05:10:48;;;;;;;;;;;;;;;2.05;100.00;101519.88;5116069;28;19924;-77
2021/03/04 05:13:14;;;;;;;;;;;;;;;2.07;100.00;101514.88;5081593;28;20347;-77
2021/03/04 05:15:41;;;;;;;;;;;;;;;2.04;100.00;101521.00;5116330;28;19931;-76
2021/03/04 05:18:08;;;;;;;;;;;;;;;2.04;100.00;101512.72;5095240;28;19928;-77
2021/03/04 05:20:34;;;;;;;;;;;;;;;2.02;100.00;101520.47;5078069;28;19924;-77
2021/03/04 05:23:01;;;;;;;;;;;;;;;2.05;100.00;101521.78;5115053;28;19931;-76
2021/03/04 05:25:27;;;;;;;;;;;;;;;2.13;100.00;101526.59;5094756;28;20309;-77
2021/03/04 05:27:54;;;;;;;;;;;;;;;2.08;100.00;101535.78;5102220;28;19932;-77
2021/03/04 05:30:20;;;;;;;;;;;;;;;2.04;100.00;101536.72;5104386;28;19969;-77
2021/03/04 05:32:47;;;;;;;;;;;;;;;2.06;100.00;101542.75;5079217;28;19923;-77
2021/03/04 05:35:13;;;;;;;;;;;;;;;2.04;100.00;101553.28;5100884;28;19931;-77
2021/03/04 05:37:39;;;;;;;;;;;;;;;2.11;100.00;101550.91;5094090;28;19951;-77
2021/03/04 05:40:08;;;;;;;;;;;;;;;2.12;100.00;101552.56;5092915;28;19924;-77
2021/03/04 05:42:35;;;;;;;;;;;;;;;2.15;100.00;101557.47;5115972;28;19931;-77
2021/03/04 05:45:03;;;;;;;;;;;;;;;2.12;100.00;101558.06;5115809;28;19924;-77
2021/03/04 05:47:29;;;;;;;;;;;;;;;2.05;100.00;101552.97;5108869;28;19924;-77
2021/03/04 05:50:02;;;;;;;;;;;;;;;2.06;100.00;101556.53;5097335;28;19927;-77
2021/03/04 05:52:29;;;;;;;;;;;;;;;2.05;100.00;101550.19;5115491;28;19924;-77
2021/03/04 05:54:57;;;;;;;;;;;;;;;2.06;100.00;101548.28;5096979;28;19972;-77
2021/03/04 05:57:23;;;;;;;;;;;;;;;2.06;100.00;101548.28;5097168;28;19931;-77
2021/03/04 05:59:51;;;;;;;;;;;;;;;2.08;100.00;101540.47;5096910;28;20509;-77
2021/03/04 06:02:19;;;;;;;;;;;;;;;2.07;100.00;101527.84;5115185;28;19924;-77
2021/03/04 06:04:46;;;;;;;;;;;;;;;2.07;100.00;101522.31;5076632;28;19986;-77
2021/03/04 06:07:12;;;;;;;;;;;;;;;2.20;100.00;101527.81;5096259;28;20417;-77
2021/03/04 06:09:39;;;;;;;;;;;;;;;2.15;100.00;101518.84;5114824;28;20371;-77
2021/03/04 06:12:06;;;;;;;;;;;;;;;2.09;100.00;101509.03;5110826;28;20404;-77
2021/03/04 06:14:33;;;;;;;;;;;;;;;2.08;100.00;101501.88;5097426;28;19943;-77
2021/03/04 06:17:12;;;;;;;;;;;;;;;2.11;100.00;101491.03;5115368;28;19924;-77
2021/03/04 06:19:39;;;;;;;;;;;;;;;2.08;100.00;101479.81;5115659;28;19928;-77
2021/03/04 06:22:51;;;;;;;;;;;;;;;2.09;100.00;101478.69;5113487;28;19955;-77
2021/03/04 06:25:20;;;;;;;;;;;;;;;2.09;100.00;101457.44;5096715;28;19923;-77
2021/03/04 06:27:47;;;;;;;;;;;;;;;2.03;100.00;101439.38;5097194;28;19935;-77
2021/03/04 06:30:17;;;;;;;;;;;;;;;2.03;100.00;101433.06;5115152;28;19947;-77
2021/03/04 06:32:56;;;;;;;;;;;;;;;2.05;100.00;101425.25;5115080;28;19924;-77
2021/03/04 06:35:24;;;;;;;;;;;;;;;2.03;100.00;101411.78;5115016;28;20267;-77
2021/03/04 06:37:51;;;;;;;;;;;;;;;2.06;100.00;101399.34;5096554;28;19928;-77
2021/03/04 06:40:17;;;;;;;;;;;;;;;2.05;100.00;101386.66;5114867;28;19930;-77
2021/03/04 06:42:44;;;;;;;;;;;;;;;2.07;100.00;101381.66;5110727;28;20448;-77
2021/03/04 06:45:24;;;;;;;;;;;;;;;2.04;100.00;101376.75;5096578;28;19931;-77
2021/03/04 06:47:51;;;;;;;;;;;;;;;2.00;100.00;101361.97;5114638;28;19928;-77
2021/03/04 06:50:22;;;;;;;;;;;;;;;2.03;100.00;101355.84;5114895;28;19924;-77
2021/03/04 06:52:48;;;;;;;;;;;;;;;2.08;100.00;101341.91;5114335;28;19923;-77
2021/03/04 06:55:15;;;;;;;;;;;;;;;2.06;100.00;101327.63;5096810;28;19928;-77
2021/03/04 06:57:56;;;;;;;;;;;;;;;2.03;100.00;101314.47;5114503;28;19928;-78
2021/03/04 07:00:23;;;;;;;;;;;;;;;2.06;100.00;101316.59;5083023;28;19976;-77
2021/03/04 07:02:50;;;;;;;;;;;;;;;1.99;100.00;101305.16;5096546;28;20256;-78
2021/03/04 07:05:17;;;;;;;;;;;;;;;2.03;100.00;101303.44;5114745;28;20301;-77
2021/03/04 07:07:48;;;;;;;;;;;;;;;2.03;100.00;101309.75;5114285;28;20394;-77
2021/03/04 07:10:15;;;;;;;;;;;;;;;2.00;100.00;101295.78;5114239;28;19927;-77
2021/03/04 07:12:42;;;;;;;;;;;;;;;2.03;100.00;101308.94;5114678;28;19923;-77
2021/03/04 07:15:08;;;;;;;;;;;;;;;2.07;100.00;101308.00;5114454;28;20290;-78
2021/03/04 07:17:35;;;;;;;;;;;;;;;2.09;100.00;101304.94;5096058;28;19923;-77
2021/03/04 07:20:06;;;;;;;;;;;;;;;2.06;100.00;101305.56;5114442;28;19931;-78
2021/03/04 07:22:32;;;;;;;;;;;;;;;2.08;100.00;101306.88;5100753;28;20543;-78
2021/03/04 07:25:00;;;;;;;;;;;;;;;2.10;100.00;101307.38;5113074;28;19927;-81
2021/03/04 07:27:27;;;;;;;;;;;;;;;2.08;100.00;101306.06;5075277;28;19958;-77
2021/03/04 07:29:53;;;;;;;;;;;;;;;2.06;100.00;101311.88;5069398;28;19931;-77
2021/03/04 07:32:21;;;;;;;;;;;;;;;2.09;100.00;101310.47;5085138;28;20449;-77
2021/03/04 07:34:48;;;;;;;;;;;;;;;2.04;100.00;101305.06;5099306;28;19928;-77
2021/03/04 07:37:17;;;;;;;;;;;;;;;2.06;100.00;101313.84;5079494;28;19928;-77
2021/03/04 07:39:46;;;;;;;;;;;;;;;2.13;100.00;101322.47;5102743;28;19924;-77
2021/03/04 07:42:18;;;;;;;;;;;;;;;2.12;100.00;101318.91;5108889;28;20282;-78
2021/03/04 07:44:45;;;;;;;;;;;;;;;2.22;100.00;101326.94;5087004;28;19932;-77
2021/03/04 07:47:12;;;;;;;;;;;;;;;2.19;100.00;101321.22;5104773;28;20382;-78
2021/03/04 07:49:41;;;;;;;;;;;;;;;2.21;100.00;101324.50;5085705;28;20290;-78
2021/03/04 07:52:11;;;;;;;;;;;;;;;2.29;100.00;101332.81;5100680;28;20346;-77
2021/03/04 07:54:38;;;;;;;;;;;;;;;2.21;100.00;101324.50;5087771;28;19991;-77
2021/03/04 07:57:05;;;;;;;;;;;;;;;2.27;100.00;101329.59;5086581;28;19939;-77
2021/03/04 07:59:32;;;;;;;;;;;;;;;2.29;100.00;101332.03;5091551;28;20367;-77
2021/03/04 08:02:00;;;;;;;;;;;;;;;2.22;100.00;101331.63;5091371;28;19927;-77
2021/03/04 08:04:28;;;;;;;;;;;;;;;2.26;100.00;101321.63;5112710;28;19924;-78
2021/03/04 08:06:55;;;;;;;;;;;;;;;2.27;100.00;101329.59;5109036;28;19932;-78
2021/03/04 08:09:24;;;;;;;;;;;;;;;2.29;100.00;101332.03;5100589;28;19939;-77
2021/03/04 08:11:51;;;;;;;;;;;;;;;2.46;100.00;101334.88;5074112;28;20341;-78
2021/03/04 08:14:26;;;;;;;;;;;;;;;2.39;100.00;101329.00;5083347;28;20359;-78
2021/03/04 08:16:55;;;;;;;;;;;;;;;2.43;100.00;101333.56;5105840;28;19945;-77
2021/03/04 08:19:29;;;;;;;;;;;;;;;2.37;100.00;101311.94;5099250;28;19931;-79
2021/03/04 08:22:03;;;;;;;;;;;;;;;2.44;100.00;101306.81;5071357;28;19977;-77
2021/03/04 08:24:30;;;;;;;;;;;;;;;2.57;100.00;101306.72;5102722;28;19923;-77
2021/03/04 08:26:57;;;;;;;;;;;;;;;2.53;100.00;101293.88;5085117;28;19931;-77
2021/03/04 08:29:24;;;;;;;;;;;;;;;2.54;100.00;101301.00;5094943;28;19924;-78
2021/03/04 08:31:53;;;;;;;;;;;;;;;2.57;100.00;101281.88;5115894;28;19924;-79
2021/03/04 08:34:19;;;;;;;;;;;;;;;2.67;100.00;101283.53;5098631;28;19966;-78
2021/03/04 08:36:49;;;;;;;;;;;;;;;2.73;100.00;101271.19;5116140;28;19924;-79
2021/03/04 08:39:16;;;;;;;;;;;;;;;2.72;100.00;101253.03;5108073;28;19973;-78
2021/03/04 08:41:43;;;;;;;;;;;;;;;2.70;100.00;101236.78;5117195;28;19939;-78
2021/03/04 08:44:13;;;;;;;;;;;;;;;2.82;100.00;101230.63;5117124;28;20022;-78
2021/03/04 08:46:47;;;;;;;;;;;;;;;2.84;100.00;101211.81;5113366;28;20298;-79
2021/03/04 08:49:20;;;;;;;;;;;;;;;3.05;100.00;101213.66;5115149;28;19947;-78
2021/03/04 08:51:47;;;;;;;;;;;;;;;3.16;100.00;101208.63;5097228;28;19924;-78
2021/03/04 08:54:21;;;;;;;;;;;;;;;2.95;100.00;101191.88;5098520;28;19924;-78
2021/03/04 08:56:58;;;;;;;;;;;;;;;2.88;100.00;101182.41;5085670;28;19928;-79
2021/03/04 08:59:26;;;;;;;;;;;;;;;2.92;100.00;101175.13;5062780;28;19938;-77
2021/03/04 09:01:54;;;;;;;;;;;;;;;2.78;100.00;101152.34;5066383;28;20019;-76
2021/03/04 09:04:24;;;;;;;;;;;;;;;2.63;100.00;101150.03;5084116;28;19938;-77
2021/03/04 09:06:51;;;;;;;;;;;;;;;2.62;100.00;101131.88;5094350;28;19935;-78
2021/03/04 09:09:24;;;;;;;;;;;;;;;2.71;100.00;101124.41;5087512;28;19924;-78
2021/03/04 09:11:53;;;;;;;;;;;;;;;2.62;100.00;101115.31;5088852;28;19950;-90
2021/03/04 09:14:30;;;;;;;;;;;;;;;2.60;100.00;101109.28;5081735;28;20534;-93
2021/03/04 09:16:57;;;;;;;;;;;;;;;2.61;100.00;101092.41;5071579;28;20299;-88
2021/03/04 09:19:37;;;;;;;;;;;;;;;2.73;100.00;101092.59;5095329;28;19932;-87
2021/03/04 09:22:04;;;;;;;;;;;;;;;2.67;100.00;101088.34;5088687;28;19936;-87
2021/03/04 09:24:32;;;;;;;;;;;;;;;2.66;100.00;101072.13;5061637;28;20404;-88
2021/03/04 09:27:05;;;;;;;;;;;;;;;2.80;100.00;101072.78;5065174;28;19924;-88
2021/03/04 09:29:33;;;;;;;;;;;;;;;2.77;100.00;101067.91;5071844;28;19932;-89
2021/03/04 09:32:00;;;;;;;;;;;;;;;2.84;100.00;101062.69;5082437;28;19923;-90
2021/03/04 09:34:53;;;;;;;;;;;;;;;2.98;100.00;101068.88;5083149;28;19924;-89
2021/03/04 09:37:26;;;;;;;;;;;;;;;3.14;100.00;101068.06;5042430;28;19928;-88
2021/03/04 09:39:55;;;;;;;;;;;;;;;3.22;100.00;101069.19;5096356;28;19928;-89
2021/03/04 09:42:38;;;;;;;;;;;;;;;3.27;100.00;101055.22;5077904;28;19924;-89
2021/03/04 09:45:11;;;;;;;;;;;;;;;3.38;100.00;101053.72;5070382;28;20026;-94
2021/03/04 09:47:43;;;;;;;;;;;;;;;3.50;100.00;101057.44;5047137;28;19928;-91
2021/03/04 09:50:28;;;;;;;;;;;;;;;3.40;100.00;101045.91;5064627;28;19928;-92
2021/03/04 09:53:02;;;;;;;;;;;;;;;3.81;100.00;101065.50;5053481;28;19954;-90
2021/03/04 09:55:41;;;;;;;;;;;;;;;3.85;100.00;101060.91;5072568;28;20027;-90
2021/03/04 09:58:15;;;;;;;;;;;;;;;3.83;100.00;101054.91;5060598;28;19924;-89
2021/03/04 10:00:43;;;;;;;;;;;;;;;3.92;100.00;101043.81;5082142;28;19924;-90
2021/03/04 10:03:59;;;;;;;;;;;;;;;4.20;100.00;101050.50;5071209;28;19924;-89
2021/03/04 10:06:25;;;;;;;;;;;;;;;4.11;100.00;101039.47;5051927;28;19928;-90
2021/03/04 10:08:54;;;;;;;;;;;;;;;3.98;100.00;101015.63;5066735;28;20007;-88
2021/03/04 10:11:28;;;;;;;;;;;;;;;3.89;100.00;101008.50;5089967;28;19924;-89
2021/03/04 10:14:16;;;;;;;;;;;;;;;3.97;100.00;101002.94;5069153;28;19974;-89
2021/03/04 10:17:15;;;;;;;;;;;;;;;4.20;100.00;101004.28;5044338;28;19970;-88
2021/03/04 10:19:48;;;;;;;;;;;;;;;4.04;100.00;100986.66;5058838;28;19938;-89
2021/03/04 10:22:24;;;;;;;;;;;;;;;3.97;100.00;100971.72;5080863;28;19927;-88
2021/03/04 10:29:39;;;;;;;;;;;;;;;4.03;100.00;100935.22;5077892;28;19920;-89
2021/03/04 10:32:20;;;;;;;;;;;;;;;;;;;;;
2021/03/04 10:35:11;;;;;;;;;;;;;;;4.08;100.00;100912.88;5098395;28;19930;-88
2021/03/04 10:37:39;;;;;;;;;;;;;;;4.30;100.00;100907.00;5059710;28;19925;-87
2021/03/04 10:40:08;;;;;;;;;;;;;;;4.26;100.00;100895.00;5061041;28;19928;-88
2021/03/04 10:42:42;;;;;;;;;;;;;;;4.31;100.00;100886.50;5075476;28;19993;-89
2021/03/04 10:45:10;;;;;;;;;;;;;;;4.18;100.00;100876.50;5043889;28;19924;-87
2021/03/04 10:47:37;;;;;;;;;;;;;;;4.25;100.00;100874.03;5060856;28;19924;-88
2021/03/04 10:50:05;;;;;;;;;;;;;;;4.32;100.00;100865.97;5033593;28;19931;-87
2021/03/04 10:52:44;;;;;;;;;;;;;;;4.26;100.00;100855.44;5060351;28;19924;-88
2021/03/04 10:55:28;;;;;;;;;;;;;;;4.32;100.00;100848.56;5057924;28;19931;-87
2021/03/04 10:58:04;;;;;;;;;;;;;;;4.12;100.00;100833.59;5072486;28;19923;-86
2021/03/04 11:00:30;;;;;;;;;;;;;;;4.21;100.00;100830.78;5047244;28;19931;-88
2021/03/04 11:02:57;;;;;;;;;;;;;;;4.30;100.00;100831.50;5062819;28;19962;-88
2021/03/04 11:05:24;;;;;;;;;;;;;;;4.69;100.00;100823.44;5064388;28;19972;-87
2021/03/04 11:07:52;;;;;;;;;;;;;;;4.76;100.00;100826.47;5069205;28;20027;-89
2021/03/04 11:10:18;;;;;;;;;;;;;;;4.59;100.00;100825.84;5077070;28;19924;-87
2021/03/04 11:12:47;;;;;;;;;;;;;;;4.97;100.00;100827.19;5059378;28;19928;-85
2021/03/04 11:15:14;;;;;;;;;;;;;;;4.75;100.00;100813.78;5059393;28;19924;-84
2021/03/04 11:17:41;;;;;;;;;;;;;;;4.59;100.00;100814.78;5056422;28;20015;-84
2021/03/04 11:20:08;;;;;;;;;;;;;;;4.51;100.00;100802.63;5064333;28;20019;-87
2021/03/04 11:22:35;;;;;;;;;;;;;;;4.65;100.00;100789.28;5041180;28;19985;-84
2021/03/04 11:25:03;;;;;;;;;;;;;;;4.84;100.00;100795.09;5060674;28;19932;-82
2021/03/04 11:27:29;;;;;;;;;;;;;;;4.80;100.00;100790.59;5088124;28;19925;-81
2021/03/04 11:29:56;;;;;;;;;;;;;;;4.82;100.00;100791.84;5061885;28;19936;-78
2021/03/04 11:32:25;;;;;;;;;;;;;;;4.77;100.00;100789.28;5085428;28;19939;-77
2021/03/04 11:34:51;;;;;;;;;;;;;;;4.66;100.00;100788.13;5076010;28;19958;-76
2021/03/04 11:37:18;;;;;;;;;;;;;;;4.65;100.00;100780.97;5053796;28;19932;-76
2021/03/04 11:39:45;;;;;;;;;;;;;;;4.70;100.00;100772.44;5054671;28;20773;-77
2021/03/04 11:45:43;;;;;;;;;;;;;;;;;;;;;
2021/03/04 11:49:11;;;;;;;;;;;;;;;4.43;100.00;100750.94;5038781;28;19960;-77
2021/03/04 11:51:47;;;;;;;;;;;;;;;4.36;100.00;100745.13;5088440;28;19955;-77
2021/03/04 11:54:23;;;;;;;;;;;;;;;4.39;100.00;100744.44;5094878;28;19924;-76
2021/03/04 11:56:50;;;;;;;;;;;;;;;4.43;100.00;100727.97;5092414;28;19935;-76
2021/03/04 11:59:16;;;;;;;;;;;;;;;4.54;100.00;100738.28;5085356;28;19935;-77
2021/03/04 12:13:16;;;;;;;;;;;;;;;4.81;100.00;100715.47;4933724;29;19949;-77
2021/03/04 12:15:42;;;;;;;;;;;;;;;4.56;100.00;100716.56;4945913;29;19935;-76
2021/03/04 12:18:09;;;;;;;;;;;;;;;4.57;100.00;100700.78;4933419;29;20393;-78
2021/03/04 12:23:53;;;;;;;;;;;;;;;4.93;100.00;100651.75;4941903;29;20000;-77
2021/03/04 12:26:57;;;;;;;;;;;;;;;4.91;100.00;100647.69;4937729;29;19933;-77
2021/03/04 12:29:25;;;;;;;;;;;;;;;5.07;100.00;100646.63;4919617;29;20310;-78
2021/03/04 12:39:37;;;;;;;;;;;;;;;5.47;100.00;100503.28;4841319;29;19931;-77
2021/03/04 12:42:03;;;;;;;;;;;;;;;5.63;100.00;100494.19;4823374;29;19958;-77
2021/03/04 12:44:30;;;;;;;;;;;;;;;5.78;100.00;100488.66;4827907;29;19928;-78
2021/03/04 12:47:22;;;;;;;;;;;;;;;5.90;100.00;100479.47;4831680;29;20515;-79
2021/03/04 12:50:17;;;;;;;;;;;;;;;5.79;100.00;100448.66;4911340;29;19931;-79
2021/03/04 12:55:57;;;;;;;;;;;;;;;5.92;100.00;100424.44;4923290;29;19927;-78
2021/03/04 12:58:23;;;;;;;;;;;;;;;5.87;100.00;100414.41;4918221;29;19931;-79
2021/03/04 13:00:50;;;;;;;;;;;;;;;5.83;100.00;100398.84;4929171;29;19930;-78
2021/03/04 13:03:28;;;;;;;;;;;;;;;5.88;100.00;100393.03;4927300;29;19938;-79
2021/03/04 13:05:54;;;;;;;;;;;;;;;5.86;100.00;100382.28;4935042;29;19931;-79
2021/03/04 13:08:21;;;;;;;;;;;;;;;5.83;100.00;100365.56;4923146;29;19951;-79
2021/03/04 13:13:59;;;;;;;;;;;;;;;5.87;100.00;100333.16;5014434;28;20388;-78
2021/03/04 13:16:27;;;;;;;;;;;;;;;5.73;100.00;100191.34;5082392;28;19931;-78
2021/03/04 13:18:55;;;;;;;;;;;;;;;5.67;100.00;100012.56;5081481;28;19988;-79
2021/03/04 13:21:21;;;;;;;;;;;;;;;5.70;100.00;100004.31;5107807;28;19923;-79
2021/03/04 13:23:48;;;;;;;;;;;;;;;5.69;100.00;100004.69;5098193;28;19923;-79
2021/03/04 13:26:14;;;;;;;;;;;;;;;5.73;100.00;99994.47;5116633;28;19931;-79